Lambert St Louis International Airport
KSTL : rendu visible

Aérodrome :











RETROUVEZ-NOUS SUR...

 
LOGIN :

S'inscrire | Disclaimer

   EN    FR    IT 

 









Légende :    VFR   VFR Marginal   IFR   IFR Intensif   IFR Très Intensif
Visi : 
Plafond : 
>= 8 km
>= 3000ft
5 à 8 km
1000 à 3000 ft
1500m à 5 km
500 à 1000 ft
800 à 1500m
200 à 500 ft
< 800m
< 200 ft
Symboles :   Orages  Brouillard  Fortes neiges  Fortes précipitations  Vent > 20 kt






- Altitude de l'aérodrome : 618 ft
- Code IATA : STL


KSTL - Lambert St Louis International

DERNIER METAR :
  • 312051Z 32003KT 10SM FEW070 FEW250 27/09 A3023 RMK AO2 SLP228 T02720089 58016

METARs EXPIRÉS :
  • 311951Z VRB03KT 10SM FEW070 FEW250 27/08 A3024 RMK AO2 SLP233 T02670083
  • 311851Z 00000KT 10SM FEW070 FEW250 26/08 A3026 RMK AO2 SLP240 T02560078
  • 311751Z 00000KT 10SM FEW070 FEW250 26/08 A3027 RMK AO2 SLP244 T02560083 10256 20167 58012

TAF KSTL
Valide du 31 à 21h jusqu'au 02 à 00h UTC


312058Z 3121/0124 VRB04KT P6SM FEW070 SCT250
FM010600 14005KT P6SM SKC
FIR KZKC / Amérique du Nord



MET'MAP, la Météo Aéronautique d'un coup d'oeil ! - Copyright ORBIFLY Décembre 2007 - Disclaimer

ORBIFLY MET'MAP TEAM :

Programmation & Développement : Alexandra Zaïnal
Sur une idée originale de : Baudouin d'Aumeries
Assistance à la programmation : Marc-Olivier Méhu
Soutien technique & logistique : Manuel Goepfert

Contact : metmap@orbifly.com




SOURCES & CREDITS :

   NOAA       Earth
Advisory